createdAt,value
2023-02-11T00:02:29.808Z,65265.66
2023-02-11T00:07:36.625Z,65228.97
2023-02-11T00:12:41.000Z,65281.53
2023-02-11T00:17:45.263Z,65233.53
2023-02-11T00:22:50.942Z,65249.41
2023-02-11T00:27:55.179Z,65216.00
2023-02-11T00:32:59.387Z,65206.63
2023-02-11T00:38:05.418Z,65253.34
2023-02-11T00:43:09.931Z,65323.56
2023-02-11T00:48:14.222Z,65258.56
2023-02-11T00:53:19.987Z,65209.09
2023-02-11T00:58:24.185Z,65227.69
2023-02-11T01:03:28.690Z,65255.47
2023-02-11T01:08:34.617Z,65262.28
2023-02-11T01:13:39.047Z,65263.34
2023-02-11T01:18:44.549Z,65270.78
2023-02-11T01:23:50.216Z,65256.44
2023-02-11T01:28:54.507Z,65238.34
2023-02-11T01:33:58.819Z,65258.03
2023-02-11T01:39:04.854Z,65211.63
2023-02-11T01:44:28.617Z,65233.22
2023-02-11T01:49:36.583Z,65221.97
2023-02-11T01:55:02.670Z,65203.25
2023-02-11T02:00:12.612Z,65173.03
2023-02-11T02:05:25.742Z,65160.16
2023-02-11T02:10:32.939Z,65212.16
2023-02-11T02:15:39.194Z,65229.72
2023-02-11T02:21:44.742Z,65239.94
2023-02-11T02:27:10.139Z,65191.13
2023-02-11T02:32:44.732Z,65152.63
2023-02-11T02:37:57.816Z,65159.63
2023-02-11T02:43:04.324Z,65179.53
2023-02-11T02:48:26.294Z,65123.59
2023-02-11T02:53:44.071Z,65177.19
2023-02-11T02:59:26.117Z,65131.47
2023-02-11T03:04:39.570Z,65167.94
2023-02-11T03:09:49.832Z,65100.53
2023-02-11T03:14:54.435Z,65076.75
2023-02-11T03:20:01.293Z,65083.03
2023-02-11T03:25:06.823Z,65041.91
2023-02-11T03:30:17.756Z,65118.84
2023-02-11T03:35:26.545Z,65086.72
2023-02-11T03:40:33.804Z,65092.69
2023-02-11T03:45:39.998Z,65107.13
2023-02-11T03:50:47.773Z,65060.81
2023-02-11T03:55:53.598Z,65080.78
2023-02-11T04:00:57.927Z,65070.78
2023-02-11T04:06:03.814Z,65060.59
2023-02-11T04:11:08.325Z,65100.88
2023-02-11T04:16:12.773Z,65109.03
2023-02-11T04:21:18.670Z,65032.13
2023-02-11T04:26:22.577Z,65087.38
2023-02-11T04:31:26.897Z,65102.66
2023-02-11T04:36:32.576Z,65065.91
2023-02-11T04:41:36.954Z,65116.59
2023-02-11T04:46:41.627Z,65075.06
2023-02-11T04:51:49.410Z,65039.34
2023-02-11T04:56:53.880Z,65080.56
2023-02-11T05:01:58.195Z,65123.50
2023-02-11T05:07:03.962Z,65098.00
2023-02-11T05:12:08.125Z,65078.88
2023-02-11T05:17:12.453Z,64992.97
2023-02-11T05:22:18.324Z,65055.94
2023-02-11T05:27:22.515Z,65000.41
2023-02-11T05:32:26.873Z,65012.50
2023-02-11T05:37:32.689Z,65051.66
2023-02-11T05:42:37.063Z,65033.09
2023-02-11T05:47:41.486Z,64988.19
2023-02-11T05:52:47.172Z,64980.66
2023-02-11T05:57:51.706Z,65029.50
2023-02-11T06:02:56.454Z,64988.09
2023-02-11T06:08:02.399Z,65031.09
2023-02-11T06:13:06.642Z,65050.19
2023-02-11T06:18:12.011Z,65043.81
2023-02-11T06:23:17.774Z,65037.56
2023-02-11T06:28:22.011Z,65026.72
2023-02-11T06:33:28.394Z,65071.22
2023-02-11T06:38:34.917Z,65075.69
2023-02-11T06:43:39.174Z,65094.06
2023-02-11T06:48:44.935Z,65041.59
2023-02-11T06:53:50.694Z,65063.38
2023-02-11T06:58:56.501Z,65047.31
2023-02-11T07:04:00.781Z,65016.44
2023-02-11T07:09:06.756Z,65097.56
2023-02-11T07:14:13.412Z,65019.41
2023-02-11T07:19:17.620Z,65044.03
2023-02-11T07:24:23.409Z,65048.72
2023-02-11T07:29:28.180Z,65016.22
2023-02-11T07:34:33.183Z,65062.50
2023-02-11T07:39:38.944Z,65154.88
2023-02-11T07:44:43.214Z,65077.81
2023-02-11T07:49:47.758Z,65069.84
2023-02-11T07:54:53.652Z,65084.50
2023-02-11T07:59:57.660Z,65130.31
2023-02-11T08:05:02.010Z,65092.03
2023-02-11T08:10:08.564Z,65147.31
2023-02-11T08:15:13.190Z,65074.94
2023-02-11T08:20:17.666Z,65081.00
2023-02-11T08:25:23.395Z,65095.88
2023-02-11T08:30:29.087Z,65153.47
2023-02-11T08:35:34.175Z,65118.84
2023-02-11T08:40:39.803Z,65135.63
2023-02-11T08:45:43.967Z,65162.84
2023-02-11T08:50:48.308Z,65168.78
2023-02-11T08:55:56.690Z,65129.88
2023-02-11T09:01:01.308Z,65169.63
2023-02-11T09:06:08.143Z,65235.16
2023-02-11T09:11:14.696Z,65159.22
2023-02-11T09:16:21.049Z,65196.00
2023-02-11T09:21:25.337Z,65212.69
2023-02-11T09:26:33.313Z,65207.28
2023-02-11T09:31:37.890Z,65178.78
2023-02-11T09:36:42.952Z,65185.16
2023-02-11T09:42:27.924Z,65207.28
2023-02-11T09:47:34.544Z,65256.97
2023-02-11T09:52:45.526Z,65172.41
2023-02-11T09:57:51.568Z,65238.97
2023-02-11T10:03:05.260Z,65276.75
2023-02-11T10:08:17.428Z,65233.44
2023-02-11T10:13:42.613Z,65302.81
2023-02-11T10:19:11.432Z,65288.97
2023-02-11T10:24:17.974Z,65249.72
2023-02-11T10:29:37.212Z,65355.00
2023-02-11T10:34:43.423Z,65249.06
2023-02-11T10:39:47.914Z,65302.19
2023-02-11T10:45:00.481Z,65335.59
2023-02-11T10:50:21.877Z,65315.59
2023-02-11T10:55:29.190Z,65280.47
2023-02-11T11:00:41.432Z,65421.34
2023-02-11T11:05:49.982Z,65401.66
2023-02-11T11:11:05.176Z,65383.19
2023-02-11T11:16:26.832Z,65369.91
2023-02-11T11:21:35.775Z,65436.38
2023-02-11T11:26:44.972Z,65450.94
2023-02-11T11:31:53.403Z,65501.19
2023-02-11T11:36:59.688Z,65445.75
2023-02-11T11:42:06.621Z,65519.63
2023-02-11T11:47:22.528Z,65529.72
2023-02-11T11:52:38.942Z,65510.03
2023-02-11T11:57:45.506Z,65478.56
2023-02-11T12:03:12.224Z,65556.84
2023-02-11T12:08:25.907Z,65473.66
2023-02-11T12:13:42.251Z,65475.38
2023-02-11T12:19:18.110Z,65522.91
2023-02-11T12:24:42.779Z,65536.03
2023-02-11T12:30:03.801Z,65474.72
2023-02-11T12:35:28.885Z,65463.09
2023-02-11T12:40:43.532Z,65513.66
2023-02-11T12:45:59.256Z,65452.56
2023-02-11T12:51:11.778Z,65486.47
2023-02-11T12:56:21.509Z,65418.59
2023-02-11T13:01:30.625Z,65472.16
2023-02-11T13:06:42.049Z,65474.19
2023-02-11T13:11:52.187Z,65465.34
2023-02-11T13:16:58.672Z,65435.94
2023-02-11T13:22:10.782Z,65448.00
2023-02-11T13:27:24.439Z,65458.22
2023-02-11T13:32:28.825Z,65490.94
2023-02-11T13:37:40.093Z,65417.63
2023-02-11T13:42:52.355Z,65385.97
2023-02-11T13:47:59.518Z,65474.19
2023-02-11T13:53:07.898Z,65408.78
2023-02-11T13:58:36.496Z,65384.16
2023-02-11T14:04:18.463Z,65384.16
2023-02-11T14:09:40.085Z,65404.63
2023-02-11T14:15:18.344Z,65440.09
2023-02-11T14:20:42.075Z,65387.56
2023-02-11T14:25:58.392Z,65347.97
2023-02-11T14:31:10.905Z,65333.78
2023-02-11T14:36:51.977Z,65304.41
2023-02-11T14:41:58.374Z,65340.50
2023-02-11T14:47:02.962Z,65297.94
2023-02-11T14:52:17.113Z,65265.47
2023-02-11T14:57:23.132Z,65277.19
2023-02-11T15:02:32.165Z,65279.63
2023-02-11T15:07:36.710Z,65259.63
2023-02-11T15:12:42.726Z,65251.09
2023-02-11T15:17:47.641Z,65263.88
2023-02-11T15:22:58.654Z,65232.38
2023-02-11T15:28:21.618Z,65254.28
2023-02-11T15:33:30.067Z,65161.22
2023-02-11T15:38:34.637Z,65206.44
2023-02-11T15:43:45.648Z,65224.28
2023-02-11T15:48:52.665Z,65181.31
2023-02-11T15:53:59.358Z,65257.16
2023-02-11T15:59:14.032Z,65167.63
2023-02-11T16:04:20.711Z,65197.91
2023-02-11T16:09:31.835Z,65181.97
2023-02-11T16:14:39.388Z,65203.34
2023-02-11T16:19:46.871Z,65273.44
2023-02-11T16:24:54.393Z,65169.63
2023-02-11T16:30:00.493Z,65171.31
2023-02-11T16:35:12.433Z,65162.63
2023-02-11T16:40:17.125Z,65202.59
2023-02-11T16:45:23.085Z,65175.06
2023-02-11T16:50:27.099Z,65237.19
2023-02-11T16:55:32.604Z,65202.69
2023-02-11T17:00:39.082Z,65238.25
2023-02-11T17:05:55.033Z,65244.72
2023-02-11T17:11:00.214Z,65242.47
2023-02-11T17:16:07.525Z,65265.34
2023-02-11T17:21:11.829Z,65217.69
2023-02-11T17:26:16.243Z,65268.75
2023-02-11T17:31:22.160Z,65229.81
2023-02-11T17:36:26.586Z,65219.81
2023-02-11T17:41:31.152Z,65243.44
2023-02-11T17:46:37.589Z,65236.84
2023-02-11T17:51:42.140Z,65259.94
2023-02-11T17:56:51.004Z,65256.97
2023-02-11T18:01:57.415Z,65248.00
2023-02-11T18:07:01.876Z,65303.25
2023-02-11T18:12:07.110Z,65299.53
2023-02-11T18:17:13.177Z,65309.53
2023-02-11T18:22:18.698Z,65302.19
2023-02-11T18:27:23.609Z,65361.81
2023-02-11T18:32:29.856Z,65288.88
2023-02-11T18:37:34.758Z,65351.16
2023-02-11T18:42:39.434Z,65322.50
2023-02-11T18:47:45.336Z,65311.66
2023-02-11T18:52:49.876Z,65329.88
2023-02-11T18:57:55.241Z,65373.50
2023-02-11T19:03:01.513Z,65321.88
2023-02-11T19:08:07.346Z,65306.53
2023-02-11T19:13:13.558Z,65323.56
2023-02-11T19:18:19.642Z,65410.28
2023-02-11T19:23:24.153Z,65393.22
2023-02-11T19:28:28.635Z,65360.22
2023-02-11T19:33:34.622Z,65379.91
2023-02-11T19:38:39.900Z,65371.91
2023-02-11T19:43:44.544Z,65416.66
2023-02-11T19:48:51.168Z,65362.25
2023-02-11T19:53:55.724Z,65382.66
2023-02-11T19:59:02.780Z,65387.03
2023-02-11T20:04:09.151Z,65434.25
2023-02-11T20:09:15.259Z,65451.91
2023-02-11T20:14:19.718Z,65449.59
2023-02-11T20:19:25.759Z,65484.34
2023-02-11T20:24:30.395Z,65457.25
2023-02-11T20:29:34.808Z,65450.22
2023-02-11T20:34:40.857Z,65421.66
2023-02-11T20:39:46.144Z,65463.97
2023-02-11T20:44:50.680Z,65460.88
2023-02-11T20:49:57.331Z,65450.22
2023-02-11T20:55:01.820Z,65429.97
2023-02-11T21:00:07.283Z,65442.31
2023-02-11T21:05:13.818Z,65458.75
2023-02-11T21:10:18.681Z,65456.06
2023-02-11T21:15:24.449Z,65463.53
2023-02-11T21:20:30.194Z,65469.41
2023-02-11T21:25:34.690Z,65427.50
2023-02-11T21:30:39.483Z,65432.53
2023-02-11T21:35:45.490Z,65466.22
2023-02-11T21:40:50.291Z,65437.44
2023-02-11T21:45:55.039Z,65451.28
2023-02-11T21:51:05.117Z,65465.56
2023-02-11T21:56:11.756Z,65450.56
2023-02-11T22:01:18.226Z,65463.53
2023-02-11T22:06:26.642Z,65474.31
2023-02-11T22:11:31.410Z,65451.81
2023-02-11T22:16:36.546Z,65449.78
2023-02-11T22:21:43.606Z,65445.97
2023-02-11T22:26:48.119Z,65448.00
2023-02-11T22:31:52.591Z,65454.59
2023-02-11T22:36:58.632Z,65454.91
2023-02-11T22:42:03.137Z,65479.72
2023-02-11T22:47:07.896Z,65445.53
2023-02-11T22:52:14.079Z,65465.13
2023-02-11T22:57:18.663Z,65480.06
2023-02-11T23:02:23.296Z,65458.75
2023-02-11T23:07:29.339Z,65431.69
2023-02-11T23:12:33.814Z,65474.53
2023-02-11T23:17:38.374Z,65490.72
2023-02-11T23:22:44.218Z,65449.69
2023-02-11T23:27:48.330Z,65422.00
2023-02-11T23:32:53.548Z,65442.13
2023-02-11T23:37:59.280Z,65450.66
2023-02-11T23:43:03.652Z,65448.81
2023-02-11T23:48:08.058Z,65462.38
2023-02-11T23:53:13.831Z,65482.19
2023-02-11T23:58:17.994Z,65472.69
